Time;durP1;ratioP1;P1;durP2;ratioP2;P2;SDS_P1;SDS_P2;PMS_P1;PMS_P2;Temp;Humidity;BMP_temperature;BMP_pressure;BME280_temperature;BME280_humidity;BME280_pressure;Samples;Min_cycle;Max_cycle;Signal;HPM_P1;HPM_P2
2023/05/04 00:00:58;;;;;;;;;;;;;;;3.54;69.55;102447.04;107128;1257;61924;-84
2023/05/04 00:03:44;;;;;;;;;;;;;;;3.54;69.70;102449.95;106964;1257;125898;-83
2023/05/04 00:06:11;;;;;;;;;;;;;;;3.54;69.62;102450.16;106988;1257;66346;-83
2023/05/04 00:08:57;;;;;;;;;;;;;;;3.57;69.77;102451.44;107015;1258;71283;-84
2023/05/04 00:11:26;;;;;;;;;;;;;;;3.63;70.02;102446.35;107155;1257;61260;-83
2023/05/04 00:13:53;;;;;;;;;;;;;;;3.72;69.98;102444.14;107167;1257;62013;-83
2023/05/04 00:16:24;;;;;;;;;;;;;;;3.82;70.06;102442.00;107205;1258;269900;-84
2023/05/04 00:18:51;;;;;;;;;;;;;;;3.92;70.02;102443.30;107247;1257;67089;-84
2023/05/04 00:21:19;;;;;;;;;;;;;;;3.98;69.99;102440.48;106974;1259;125197;-84
2023/05/04 00:23:46;;;;;;;;;;;;;;;4.07;69.84;102440.45;107109;1257;60872;-84
2023/05/04 00:26:14;;;;;;;;;;;;;;;4.16;69.84;102440.10;107210;1257;61772;-84
2023/05/04 00:28:54;;;;;;;;;;;;;;;4.23;69.71;102438.93;107239;1258;124857;-84
2023/05/04 00:31:29;;;;;;;;;;;;;;;4.33;69.69;102436.71;106997;1263;66767;-84
2023/05/04 00:34:06;;;;;;;;;;;;;;;4.42;69.61;102431.66;106987;1257;125610;-84
2023/05/04 00:36:47;;;;;;;;;;;;;;;4.47;69.55;102435.20;107520;1257;61732;-83
2023/05/04 00:39:15;;;;;;;;;;;;;;;4.50;69.16;102433.48;107339;1257;125131;-83
2023/05/04 00:41:44;;;;;;;;;;;;;;;4.48;68.99;102436.88;107218;1259;74599;-84
2023/05/04 00:44:11;;;;;;;;;;;;;;;4.46;68.75;102433.60;107835;1257;65800;-83
2023/05/04 00:46:38;;;;;;;;;;;;;;;4.45;68.83;102436.08;107422;1257;125001;-83
2023/05/04 00:49:05;;;;;;;;;;;;;;;4.44;68.78;102433.05;107670;1259;60809;-83
2023/05/04 00:51:33;;;;;;;;;;;;;;;4.45;68.85;102432.49;107365;1257;124076;-84
2023/05/04 00:54:01;;;;;;;;;;;;;;;4.50;69.03;102431.63;107472;1259;75362;-84
2023/05/04 00:56:40;;;;;;;;;;;;;;;4.55;69.03;102429.91;107082;1257;67039;-84
2023/05/04 00:59:24;;;;;;;;;;;;;;;4.62;68.87;102431.63;106826;1257;124081;-84
2023/05/04 01:01:53;;;;;;;;;;;;;;;4.68;68.88;102430.87;106902;1257;62098;-83
2023/05/04 01:04:35;;;;;;;;;;;;;;;4.71;68.69;102426.05;106906;1257;124320;-83
2023/05/04 01:07:25;;;;;;;;;;;;;;;4.69;68.39;102430.61;107097;1257;73784;-84
2023/05/04 01:09:59;;;;;;;;;;;;;;;4.66;68.52;102428.47;107191;1257;124154;-84
2023/05/04 01:12:37;;;;;;;;;;;;;;;4.62;68.32;102429.07;107573;1257;71248;-84
2023/05/04 01:15:04;;;;;;;;;;;;;;;4.56;68.27;102429.48;107735;1259;124214;-85
2023/05/04 01:17:31;;;;;;;;;;;;;;;4.48;68.12;102431.07;107768;1258;60349;-83
2023/05/04 01:19:58;;;;;;;;;;;;;;;4.38;68.18;102430.50;107837;1260;75836;-84
2023/05/04 01:22:25;;;;;;;;;;;;;;;4.29;68.25;102431.77;107797;1260;124912;-83
2023/05/04 01:24:53;;;;;;;;;;;;;;;4.22;68.17;102434.14;108027;1259;72599;-83
2023/05/04 01:27:22;;;;;;;;;;;;;;;4.14;68.37;102435.98;107796;1259;124453;-83
2023/05/04 01:29:52;;;;;;;;;;;;;;;4.08;68.31;102439.00;107371;1261;60941;-84
2023/05/04 01:32:29;;;;;;;;;;;;;;;4.03;68.46;102435.31;106896;1259;75273;-83
2023/05/04 01:34:57;;;;;;;;;;;;;;;3.98;68.56;102433.70;106995;1259;124109;-83
2023/05/04 01:37:25;;;;;;;;;;;;;;;3.96;68.58;102431.23;107159;1259;72445;-84
2023/05/04 01:39:58;;;;;;;;;;;;;;;3.91;68.53;102427.75;107025;1259;124219;-83
2023/05/04 01:42:33;;;;;;;;;;;;;;;3.88;68.52;102427.83;107327;1259;62073;-84
2023/05/04 01:45:12;;;;;;;;;;;;;;;3.85;68.70;102425.89;107426;1259;124340;-83
2023/05/04 01:47:40;;;;;;;;;;;;;;;3.81;68.65;102421.36;107572;1258;67095;-84
2023/05/04 01:50:07;;;;;;;;;;;;;;;3.75;68.69;102419.83;107238;1259;73757;-84
2023/05/04 01:52:59;;;;;;;;;;;;;;;3.68;68.77;102421.11;106595;1260;124365;-84
2023/05/04 01:55:27;;;;;;;;;;;;;;;3.63;68.68;102423.08;106838;1258;60429;-84
2023/05/04 01:57:55;;;;;;;;;;;;;;;3.58;68.72;102420.78;106786;1259;125440;-84
2023/05/04 02:00:23;;;;;;;;;;;;;;;3.54;68.79;102422.38;107046;1260;66870;-84
2023/05/04 02:03:03;;;;;;;;;;;;;;;3.51;68.90;102421.78;106739;1259;124401;-83
2023/05/04 02:05:38;;;;;;;;;;;;;;;3.47;68.90;102418.86;106885;1258;62960;-84
2023/05/04 02:08:05;;;;;;;;;;;;;;;3.43;68.90;102419.75;106908;1263;62166;-84
2023/05/04 02:10:32;;;;;;;;;;;;;;;3.42;69.23;102421.75;106987;1258;124181;-83
2023/05/04 02:13:01;;;;;;;;;;;;;;;3.43;69.29;102424.45;106870;1259;67520;-83
2023/05/04 02:15:28;;;;;;;;;;;;;;;3.45;69.20;102425.70;107842;1262;124343;-83
2023/05/04 02:17:55;;;;;;;;;;;;;;;3.49;69.30;102425.07;107133;1257;62038;-83
2023/05/04 02:20:28;;;;;;;;;;;;;;;3.53;69.33;102426.98;107322;1257;61927;-83
2023/05/04 02:22:55;;;;;;;;;;;;;;;3.55;69.33;102427.16;107141;1257;124357;-83
2023/05/04 02:25:22;;;;;;;;;;;;;;;3.58;69.23;102429.80;106989;1257;67051;-84
2023/05/04 02:27:49;;;;;;;;;;;;;;;3.60;69.11;102428.23;106931;1259;124202;-83
2023/05/04 02:30:18;;;;;;;;;;;;;;;3.60;69.02;102428.96;106845;1258;62083;-83
2023/05/04 02:32:45;;;;;;;;;;;;;;;3.60;69.24;102431.52;106778;1257;124793;-84
2023/05/04 02:35:12;;;;;;;;;;;;;;;3.59;69.06;102430.58;107103;1257;74221;-83
2023/05/04 02:37:39;;;;;;;;;;;;;;;3.58;69.18;102431.90;107291;1257;65544;-83
2023/05/04 02:40:09;;;;;;;;;;;;;;;3.57;69.07;102430.79;107094;1257;124914;-83
2023/05/04 02:42:38;;;;;;;;;;;;;;;3.60;69.08;102428.00;107149;1259;62004;-83
2023/05/04 02:45:13;;;;;;;;;;;;;;;3.61;69.09;102427.63;106968;1259;124974;-83
2023/05/04 02:47:40;;;;;;;;;;;;;;;3.63;69.09;102424.14;107156;1257;73211;-84
2023/05/04 02:50:13;;;;;;;;;;;;;;;3.63;69.08;102420.14;107188;1258;65950;-83
2023/05/04 02:52:40;;;;;;;;;;;;;;;3.61;69.02;102419.10;107189;1257;125097;-82
2023/05/04 02:55:17;;;;;;;;;;;;;;;3.58;68.95;102421.50;107102;1259;60663;-83
2023/05/04 02:57:49;;;;;;;;;;;;;;;3.57;68.92;102414.23;107005;1257;124802;-85
2023/05/04 03:00:29;;;;;;;;;;;;;;;3.55;69.03;102413.55;106987;1259;74655;-84
2023/05/04 03:02:58;;;;;;;;;;;;;;;3.53;68.93;102413.96;106907;1257;124965;-84
2023/05/04 03:05:47;;;;;;;;;;;;;;;3.51;68.84;102406.65;107018;1259;72161;-84
2023/05/04 03:08:14;;;;;;;;;;;;;;;3.50;68.95;102410.76;107011;1257;60776;-83
2023/05/04 03:10:56;;;;;;;;;;;;;;;3.50;68.96;102410.23;106971;1259;124783;-84
2023/05/04 03:13:22;;;;;;;;;;;;;;;3.51;68.87;102408.10;107003;1257;75489;-83
2023/05/04 03:15:50;;;;;;;;;;;;;;;3.57;69.09;102407.16;106890;1257;125059;-83
2023/05/04 03:18:17;;;;;;;;;;;;;;;3.64;69.15;102407.77;107621;1257;71003;-84
2023/05/04 03:20:45;;;;;;;;;;;;;;;3.77;69.20;102406.60;107646;1258;62460;-84
2023/05/04 03:23:12;;;;;;;;;;;;;;;3.88;69.15;102405.78;107661;1258;62039;-83
2023/05/04 03:25:39;;;;;;;;;;;;;;;3.99;69.04;102400.42;107542;1258;75485;-83
2023/05/04 03:28:06;;;;;;;;;;;;;;;4.11;69.02;102398.00;107415;1259;124977;-83
2023/05/04 03:30:41;;;;;;;;;;;;;;;4.24;68.92;102398.18;107194;1258;71448;-83
2023/05/04 03:33:11;;;;;;;;;;;;;;;4.37;68.89;102399.84;107041;1258;124915;-83
2023/05/04 03:35:44;;;;;;;;;;;;;;;4.55;68.91;102397.38;107284;1261;61115;-83
2023/05/04 03:38:19;;;;;;;;;;;;;;;4.94;69.05;102396.11;107115;1262;74648;-83
2023/05/04 03:40:55;;;;;;;;;;;;;;;5.13;68.18;102391.56;106950;1259;125355;-83
2023/05/04 03:43:22;;;;;;;;;;;;;;;5.11;67.65;102391.96;106987;1262;72521;-82
2023/05/04 03:45:57;;;;;;;;;;;;;;;5.09;67.50;102388.38;106946;1257;61016;-83
2023/05/04 03:48:25;;;;;;;;;;;;;;;5.11;67.29;102390.94;106977;1257;62168;-83
2023/05/04 03:50:52;;;;;;;;;;;;;;;5.17;67.34;102393.63;107174;1259;125017;-83
2023/05/04 03:53:24;;;;;;;;;;;;;;;5.54;68.09;102392.27;107456;1258;66140;-83
2023/05/04 03:55:54;;;;;;;;;;;;;;;6.71;68.78;102386.46;107464;1258;72342;-84
2023/05/04 03:58:21;;;;;;;;;;;;;;;7.37;67.23;102387.07;107535;1260;124278;-84
2023/05/04 04:00:49;;;;;;;;;;;;;;;7.97;66.49;102385.80;107443;1258;61968;-84
2023/05/04 04:03:22;;;;;;;;;;;;;;;7.92;64.82;102387.39;107236;1258;124205;-84
2023/05/04 04:06:08;;;;;;;;;;;;;;;7.67;64.11;102386.39;107579;1257;66364;-84
2023/05/04 04:08:38;;;;;;;;;;;;;;;7.45;63.87;102391.63;107439;1257;72541;-83
2023/05/04 04:11:11;;;;;;;;;;;;;;;7.27;63.72;102388.75;107005;1258;125084;-83
2023/05/04 04:13:38;;;;;;;;;;;;;;;7.12;63.58;102389.87;107268;1258;60369;-84
2023/05/04 04:16:37;;;;;;;;;;;;;;;7.02;63.53;102391.84;106959;1259;124692;-84
2023/05/04 04:19:05;;;;;;;;;;;;;;;6.95;63.76;102392.45;107102;1259;66919;-83
2023/05/04 04:21:32;;;;;;;;;;;;;;;6.93;63.59;102397.87;106962;1259;124285;-83
2023/05/04 04:24:03;;;;;;;;;;;;;;;6.85;63.54;102397.50;106890;1259;60883;-83
2023/05/04 04:26:44;;;;;;;;;;;;;;;6.92;63.82;102403.70;107014;1259;60328;-83
2023/05/04 04:29:11;;;;;;;;;;;;;;;7.36;64.26;102401.67;107003;1259;123952;-83
2023/05/04 04:31:39;;;;;;;;;;;;;;;8.21;64.44;102396.73;106848;1259;64626;-83
2023/05/04 04:34:13;;;;;;;;;;;;;;;8.98;64.09;102390.77;106973;1263;124049;-83
2023/05/04 04:36:44;;;;;;;;;;;;;;;10.23;64.21;102385.55;107437;1259;62042;-84
2023/05/04 04:39:13;;;;;;;;;;;;;;;11.98;63.12;102379.54;107158;1259;125513;-85
2023/05/04 04:41:51;;;;;;;;;;;;;;;12.50;60.50;102376.75;107074;1259;75491;-85
2023/05/04 04:44:19;;;;;;;;;;;;;;;14.03;60.67;102376.36;107194;1259;66214;-84
2023/05/04 04:46:47;;;;;;;;;;;;;;;15.27;58.64;102371.80;107283;1260;125025;-86
2023/05/04 04:49:22;;;;;;;;;;;;;;;16.61;57.43;102368.42;107545;1259;63002;-86
2023/05/04 04:51:49;;;;;;;;;;;;;;;18.04;55.88;102371.38;107255;1259;124849;-85
2023/05/04 04:54:31;;;;;;;;;;;;;;;19.22;53.55;102370.48;107517;1258;75206;-85
2023/05/04 04:57:01;;;;;;;;;;;;;;;18.63;50.18;102371.63;107056;1259;125953;-85
2023/05/04 04:59:28;;;;;;;;;;;;;;;17.71;49.35;102372.46;107046;1259;72714;-85
2023/05/04 05:02:10;;;;;;;;;;;;;;;16.91;49.39;102376.66;106845;1259;62164;-85
2023/05/04 05:04:38;;;;;;;;;;;;;;;16.46;49.13;102374.94;106964;1259;124793;-84
2023/05/04 05:07:07;;;;;;;;;;;;;;;16.10;48.96;102376.98;107104;1264;75919;-84
2023/05/04 05:09:37;;;;;;;;;;;;;;;15.65;48.71;102378.83;107144;1259;125183;-85
2023/05/04 05:12:10;;;;;;;;;;;;;;;15.39;49.24;102377.48;107133;1259;72853;-85
2023/05/04 05:14:37;;;;;;;;;;;;;;;15.46;48.69;102372.20;106992;1257;62176;-86
2023/05/04 05:17:05;;;;;;;;;;;;;;;15.19;48.71;102377.20;106643;1259;124875;-86
2023/05/04 05:19:38;;;;;;;;;;;;;;;16.15;49.41;102373.36;106653;1259;75318;-85
2023/05/04 05:22:08;;;;;;;;;;;;;;;16.52;48.53;102372.97;106679;1264;124490;-84
2023/05/04 05:24:36;;;;;;;;;;;;;;;17.03;47.71;102373.40;106886;1259;72764;-84
2023/05/04 05:27:04;;;;;;;;;;;;;;;16.22;46.31;102374.45;106767;1259;124680;-84
2023/05/04 05:29:32;;;;;;;;;;;;;;;15.56;46.83;102376.05;107188;1259;61981;-84
2023/05/04 05:32:11;;;;;;;;;;;;;;;15.26;46.69;102377.41;106776;1260;75551;-84
2023/05/04 05:34:47;;;;;;;;;;;;;;;14.55;46.41;102378.42;106968;1259;124903;-85
2023/05/04 05:37:14;;;;;;;;;;;;;;;13.98;47.10;102378.13;107206;1259;72526;-85
2023/05/04 05:40:10;;;;;;;;;;;;;;;13.71;47.34;102377.64;107107;1263;124770;-84
2023/05/04 05:42:37;;;;;;;;;;;;;;;13.36;47.53;102373.30;107202;1259;62060;-85
2023/05/04 05:45:11;;;;;;;;;;;;;;;13.17;47.76;102373.05;107167;1259;124769;-85
2023/05/04 05:47:38;;;;;;;;;;;;;;;12.98;47.79;102374.55;106914;1264;68106;-85
2023/05/04 05:50:07;;;;;;;;;;;;;;;12.83;48.00;102372.70;106894;1259;71574;-87
2023/05/04 05:52:46;;;;;;;;;;;;;;;12.70;48.05;102367.22;106783;1258;124968;-88
2023/05/04 05:55:21;;;;;;;;;;;;;;;12.57;48.27;102368.11;106845;1259;61105;-89
2023/05/04 05:57:48;;;;;;;;;;;;;;;12.56;48.48;102368.05;106863;1258;125295;-89
2023/05/04 06:00:17;;;;;;;;;;;;;;;12.52;48.62;102369.45;107199;1259;67053;-87
2023/05/04 06:02:44;;;;;;;;;;;;;;;12.44;48.66;102370.71;107329;1258;71196;-88
2023/05/04 06:05:17;;;;;;;;;;;;;;;12.41;48.73;102374.45;107224;1259;125334;-86
2023/05/04 06:07:50;;;;;;;;;;;;;;;12.38;48.73;102372.91;107161;1264;61918;-86
2023/05/04 06:10:29;;;;;;;;;;;;;;;12.39;48.75;102373.33;107043;1262;125014;-87
2023/05/04 06:13:03;;;;;;;;;;;;;;;12.37;48.61;102375.33;107404;1259;67106;-87
2023/05/04 06:15:30;;;;;;;;;;;;;;;12.38;48.44;102376.98;107230;1259;124836;-86
2023/05/04 06:18:02;;;;;;;;;;;;;;;12.39;48.30;102374.20;107301;1260;60200;-86
2023/05/04 06:20:30;;;;;;;;;;;;;;;12.37;48.04;102372.52;107207;1259;61943;-85
2023/05/04 06:22:58;;;;;;;;;;;;;;;12.42;47.99;102372.20;107260;1259;124635;-85
2023/05/04 06:25:27;;;;;;;;;;;;;;;12.51;48.01;102367.31;107129;1259;66799;-84
2023/05/04 06:28:01;;;;;;;;;;;;;;;12.51;47.51;102368.37;107144;1259;125681;-82
2023/05/04 06:30:28;;;;;;;;;;;;;;;12.43;47.23;102371.20;107281;1258;62064;-82
2023/05/04 06:32:56;;;;;;;;;;;;;;;12.42;47.43;102369.75;107026;1259;124942;-84
2023/05/04 06:35:25;;;;;;;;;;;;;;;12.54;47.46;102366.70;107324;1259;75502;-83
2023/05/04 06:37:52;;;;;;;;;;;;;;;12.71;47.61;102365.15;107055;1260;66347;-84
2023/05/04 06:40:34;;;;;;;;;;;;;;;12.83;47.57;102364.59;107190;1259;125011;-83
2023/05/04 06:43:03;;;;;;;;;;;;;;;12.95;47.55;102363.16;107560;1260;62948;-84
2023/05/04 06:48:58;;;;;;;;;;;;;;;12.98;47.45;102363.10;107829;1259;74996;-84
2023/05/04 06:51:39;;;;;;;;;;;;;;;13.05;47.29;102358.98;107685;1259;125111;-84
2023/05/04 06:54:08;;;;;;;;;;;;;;;13.07;47.19;102360.45;107446;1259;72056;-84
2023/05/04 06:56:49;;;;;;;;;;;;;;;13.03;47.19;102359.09;107537;1259;62171;-85
2023/05/04 06:59:19;;;;;;;;;;;;;;;12.89;46.87;102358.69;108054;1259;61977;-86
2023/05/04 07:01:46;;;;;;;;;;;;;;;12.78;46.94;102358.92;108072;1265;75928;-84
2023/05/04 07:04:15;;;;;;;;;;;;;;;12.74;47.07;102357.00;107744;1259;124847;-84
2023/05/04 07:06:43;;;;;;;;;;;;;;;12.77;47.21;102354.67;107642;1258;70660;-85
2023/05/04 07:09:12;;;;;;;;;;;;;;;12.78;47.07;102356.14;107754;1260;124681;-83
2023/05/04 07:11:52;;;;;;;;;;;;;;;12.71;46.76;102352.30;107804;1259;61935;-84
2023/05/04 07:14:19;;;;;;;;;;;;;;;12.59;46.73;102346.33;107752;1258;75617;-84
2023/05/04 07:16:46;;;;;;;;;;;;;;;12.54;46.83;102345.59;107619;1259;124456;-85
2023/05/04 07:19:13;;;;;;;;;;;;;;;12.53;47.07;102344.85;107823;1262;71503;-84
2023/05/04 07:21:42;;;;;;;;;;;;;;;12.53;47.04;102343.64;107865;1259;124612;-84
2023/05/04 07:24:11;;;;;;;;;;;;;;;12.49;46.89;102342.58;107835;1258;60338;-83
2023/05/04 07:26:38;;;;;;;;;;;;;;;12.49;47.09;102343.27;108042;1257;75490;-84
2023/05/04 07:29:08;;;;;;;;;;;;;;;12.50;47.16;102342.27;107728;1258;124457;-83
2023/05/04 07:31:37;;;;;;;;;;;;;;;12.51;47.03;102337.37;107389;1259;72748;-84
2023/05/04 07:34:04;;;;;;;;;;;;;;;12.53;47.15;102336.40;107657;1259;124515;-83
2023/05/04 07:36:33;;;;;;;;;;;;;;;12.56;47.16;102332.67;107563;1260;60681;-82
2023/05/04 07:39:00;;;;;;;;;;;;;;;12.59;47.06;102331.02;107012;1259;124834;-83
2023/05/04 07:41:27;;;;;;;;;;;;;;;12.59;46.95;102331.21;107028;1265;67090;-84
2023/05/04 07:43:54;;;;;;;;;;;;;;;12.58;47.14;102329.05;107142;1259;72602;-83
2023/05/04 07:46:24;;;;;;;;;;;;;;;12.61;47.19;102329.36;107228;1257;124995;-83
2023/05/04 07:48:57;;;;;;;;;;;;;;;12.63;47.24;102327.86;107182;1259;62102;-84
2023/05/04 07:51:26;;;;;;;;;;;;;;;12.70;47.54;102327.44;107187;1259;125075;-83
2023/05/04 07:53:53;;;;;;;;;;;;;;;12.76;47.34;102325.19;107160;1259;65655;-84
2023/05/04 07:56:28;;;;;;;;;;;;;;;12.80;47.27;102326.26;107134;1259;72542;-83
2023/05/04 07:59:04;;;;;;;;;;;;;;;12.85;47.18;102326.64;106994;1262;124789;-83
2023/05/04 08:01:33;;;;;;;;;;;;;;;12.90;46.94;102331.25;107431;1260;61771;-84
2023/05/04 08:04:00;;;;;;;;;;;;;;;12.94;46.67;102329.14;107190;1258;124825;-84
2023/05/04 08:06:28;;;;;;;;;;;;;;;12.96;46.45;102327.77;107147;1259;67173;-83
2023/05/04 08:09:02;;;;;;;;;;;;;;;12.97;46.45;102325.67;106938;1260;125554;-84
2023/05/04 08:14:24;;;;;;;;;;;;;;;13.06;46.52;102322.36;107130;1258;62032;-85
2023/05/04 08:16:56;;;;;;;;;;;;;;;13.09;46.29;102319.48;106812;1259;125157;-86
2023/05/04 08:19:38;;;;;;;;;;;;;;;13.09;46.23;102317.91;106921;1258;65246;-85
2023/05/04 08:22:11;;;;;;;;;;;;;;;13.14;46.33;102317.07;107035;1258;124407;-83
2023/05/04 08:24:43;;;;;;;;;;;;;;;13.23;46.50;102314.77;107095;1259;61719;-84
2023/05/04 08:27:16;;;;;;;;;;;;;;;13.37;46.80;102314.09;107240;1259;125204;-84
2023/05/04 08:29:43;;;;;;;;;;;;;;;13.50;46.67;102309.11;107001;1266;75444;-85
2023/05/04 08:32:16;;;;;;;;;;;;;;;13.60;46.62;102306.68;107402;1259;67447;-82
2023/05/04 08:34:54;;;;;;;;;;;;;;;13.69;46.40;102307.02;107340;1258;124553;-85
2023/05/04 08:37:24;;;;;;;;;;;;;;;13.73;46.38;102302.40;107084;1262;60228;-83
2023/05/04 08:39:58;;;;;;;;;;;;;;;13.74;46.00;102302.96;107097;1257;124861;-85
2023/05/04 08:42:28;;;;;;;;;;;;;;;13.71;45.78;102304.98;107289;1258;75228;-84
2023/05/04 08:44:56;;;;;;;;;;;;;;;13.70;45.69;102309.35;107875;1263;67145;-85
2023/05/04 08:47:23;;;;;;;;;;;;;;;13.78;45.69;102312.48;107451;1257;72842;-83
2023/05/04 08:49:54;;;;;;;;;;;;;;;13.93;45.57;102317.77;107160;1260;61895;-86
2023/05/04 08:52:21;;;;;;;;;;;;;;;14.11;45.39;102313.81;107122;1260;124496;-84
2023/05/04 08:54:50;;;;;;;;;;;;;;;14.26;45.21;102311.52;107522;1258;75507;-83
2023/05/04 08:57:17;;;;;;;;;;;;;;;14.36;44.79;102310.46;106723;1262;124742;-84
2023/05/04 08:59:44;;;;;;;;;;;;;;;14.43;44.70;102312.99;107206;1259;72689;-86
2023/05/04 09:02:11;;;;;;;;;;;;;;;14.45;44.40;102309.17;106980;1259;61866;-84
2023/05/04 09:04:39;;;;;;;;;;;;;;;14.40;44.18;102303.52;107043;1258;124605;-87
2023/05/04 09:07:06;;;;;;;;;;;;;;;14.39;44.18;102303.67;106870;1261;74063;-84
2023/05/04 09:09:34;;;;;;;;;;;;;;;14.36;43.93;102303.23;106847;1259;124812;-85
2023/05/04 09:12:07;;;;;;;;;;;;;;;14.30;43.79;102302.66;107168;1260;72663;-84
2023/05/04 09:14:40;;;;;;;;;;;;;;;14.28;43.77;102301.34;107322;1259;60701;-89
2023/05/04 09:17:28;;;;;;;;;;;;;;;14.24;43.78;102298.02;106948;1259;124469;-84
2023/05/04 09:20:03;;;;;;;;;;;;;;;14.23;43.88;102300.65;107000;1259;74224;-85
2023/05/04 09:22:30;;;;;;;;;;;;;;;14.32;43.79;102296.38;107905;1263;124569;-85
2023/05/04 09:25:05;;;;;;;;;;;;;;;14.45;43.71;102295.91;108662;1259;71608;-86
2023/05/04 09:27:32;;;;;;;;;;;;;;;14.59;43.36;102293.77;107291;1263;124846;-85
2023/05/04 09:29:59;;;;;;;;;;;;;;;14.73;43.01;102296.73;107355;1259;60713;-85
2023/05/04 09:32:27;;;;;;;;;;;;;;;14.82;42.68;102289.92;107535;1259;74536;-85
2023/05/04 09:34:54;;;;;;;;;;;;;;;14.85;42.49;102288.06;107586;1259;124465;-83
2023/05/04 09:37:21;;;;;;;;;;;;;;;14.87;41.92;102283.71;107493;1259;72496;-84
2023/05/04 09:39:49;;;;;;;;;;;;;;;14.81;41.96;102284.60;108455;1264;124784;-84
2023/05/04 09:42:17;;;;;;;;;;;;;;;14.85;42.04;102287.20;108614;1264;60136;-83
2023/05/04 09:44:44;;;;;;;;;;;;;;;14.93;41.94;102283.21;108115;1260;73928;-84
2023/05/04 09:47:11;;;;;;;;;;;;;;;15.04;41.77;102287.80;107757;1263;124767;-83
2023/05/04 09:49:38;;;;;;;;;;;;;;;15.13;41.31;102283.65;107524;1259;71430;-82
2023/05/04 09:52:05;;;;;;;;;;;;;;;15.20;41.14;102284.03;107288;1260;124489;-81
2023/05/04 09:54:35;;;;;;;;;;;;;;;15.25;40.69;102282.77;107661;1259;62141;-83
2023/05/04 09:57:21;;;;;;;;;;;;;;;15.26;40.45;102282.83;107398;1260;124780;-83
2023/05/04 09:59:54;;;;;;;;;;;;;;;15.30;39.94;102280.29;107568;1260;67570;-84
2023/05/04 10:02:21;;;;;;;;;;;;;;;15.30;39.59;102278.16;107332;1264;72802;-85
2023/05/04 10:04:51;;;;;;;;;;;;;;;15.28;39.37;102274.21;107180;1264;124612;-85
2023/05/04 10:07:19;;;;;;;;;;;;;;;15.29;39.04;102268.76;107216;1265;62299;-85
2023/05/04 10:09:47;;;;;;;;;;;;;;;15.31;38.75;102270.92;107401;1263;124817;-84
2023/05/04 10:12:21;;;;;;;;;;;;;;;15.36;38.33;102276.58;107287;1264;65798;-84
2023/05/04 10:15:06;;;;;;;;;;;;;;;15.37;38.01;102272.17;107767;1259;71387;-86
2023/05/04 10:17:45;;;;;;;;;;;;;;;15.32;37.78;102268.85;107997;1258;61336;-85
2023/05/04 10:20:12;;;;;;;;;;;;;;;15.33;37.70;102266.22;107748;1259;61236;-85
2023/05/04 10:22:42;;;;;;;;;;;;;;;15.34;37.66;102259.55;107628;1259;124607;-85
2023/05/04 10:25:18;;;;;;;;;;;;;;;15.39;37.58;102257.71;107756;1260;67531;-85
2023/05/04 10:27:49;;;;;;;;;;;;;;;15.40;37.17;102255.45;107670;1258;124627;-84
2023/05/04 10:30:17;;;;;;;;;;;;;;;15.42;37.12;102253.04;107821;1257;60965;-82
2023/05/04 10:32:44;;;;;;;;;;;;;;;15.44;37.07;102250.81;107888;1264;61960;-83
2023/05/04 10:35:11;;;;;;;;;;;;;;;15.44;36.90;102247.45;107918;1260;125306;-82
2023/05/04 10:37:38;;;;;;;;;;;;;;;15.42;36.71;102247.20;108590;1258;67482;-83
2023/05/04 10:40:07;;;;;;;;;;;;;;;15.34;36.83;102244.88;108652;1257;124923;-83
2023/05/04 10:42:41;;;;;;;;;;;;;;;15.30;36.66;102240.65;108579;1265;60274;-83
2023/05/04 10:45:09;;;;;;;;;;;;;;;15.26;36.53;102243.54;108561;1258;125131;-83
2023/05/04 10:47:36;;;;;;;;;;;;;;;15.23;36.48;102241.33;108654;1258;74766;-83
2023/05/04 10:50:04;;;;;;;;;;;;;;;15.25;36.53;102239.45;107719;1260;67087;-83
2023/05/04 10:52:31;;;;;;;;;;;;;;;15.31;36.47;102246.00;107553;1257;124559;-84
2023/05/04 10:55:00;;;;;;;;;;;;;;;15.39;36.35;102246.20;107602;1261;61970;-85
2023/05/04 10:57:28;;;;;;;;;;;;;;;15.46;36.22;102249.09;107453;1261;124601;-85
2023/05/04 10:59:58;;;;;;;;;;;;;;;15.53;36.03;102240.25;107697;1257;74018;-86
2023/05/04 11:02:26;;;;;;;;;;;;;;;15.59;35.94;102231.93;107663;1264;66088;-85
2023/05/04 11:05:03;;;;;;;;;;;;;;;15.66;35.77;102225.58;107722;1257;125009;-84
2023/05/04 11:07:33;;;;;;;;;;;;;;;15.70;36.05;102224.13;107787;1257;60208;-86
2023/05/04 11:10:00;;;;;;;;;;;;;;;15.76;36.35;102223.92;107730;1257;125399;-83
2023/05/04 11:12:27;;;;;;;;;;;;;;;15.81;37.04;102227.45;107901;1258;75490;-82
2023/05/04 11:15:04;;;;;;;;;;;;;;;15.74;37.48;102225.83;107672;1258;67211;-83
2023/05/04 11:17:31;;;;;;;;;;;;;;;15.61;38.13;102219.94;107602;1261;72961;-82
2023/05/04 11:19:59;;;;;;;;;;;;;;;15.51;38.66;102219.16;107606;1260;62044;-82
2023/05/04 11:22:27;;;;;;;;;;;;;;;15.51;38.93;102219.33;107622;1261;124651;-82
2023/05/04 11:24:54;;;;;;;;;;;;;;;15.56;38.75;102221.77;107911;1264;75456;-82
2023/05/04 11:27:24;;;;;;;;;;;;;;;15.64;38.71;102217.74;107786;1261;124755;-83
2023/05/04 11:29:58;;;;;;;;;;;;;;;15.77;38.59;102216.36;107920;1260;72099;-82
2023/05/04 11:32:38;;;;;;;;;;;;;;;15.97;38.49;102220.79;108072;1258;60623;-83
2023/05/04 11:35:09;;;;;;;;;;;;;;;16.15;38.63;102219.50;108619;1263;125125;-82
2023/05/04 11:37:39;;;;;;;;;;;;;;;16.31;38.35;102215.98;108571;1263;75701;-82
2023/05/04 11:40:10;;;;;;;;;;;;;;;16.37;38.02;102218.77;108660;1258;124525;-82
2023/05/04 11:42:40;;;;;;;;;;;;;;;16.35;37.94;102212.54;108648;1263;71726;-82
2023/05/04 11:45:22;;;;;;;;;;;;;;;16.41;38.24;102216.23;107804;1259;125220;-84
2023/05/04 11:47:50;;;;;;;;;;;;;;;16.52;38.52;102218.63;108667;1260;60187;-85
2023/05/04 11:50:17;;;;;;;;;;;;;;;16.50;38.43;102218.23;108652;1257;75396;-83
2023/05/04 11:52:44;;;;;;;;;;;;;;;16.39;38.36;102222.92;108673;1257;124706;-86
2023/05/04 11:55:25;;;;;;;;;;;;;;;16.23;37.91;102220.22;107743;1257;71394;-85
2023/05/04 11:57:56;;;;;;;;;;;;;;;16.23;37.77;102212.26;107443;1260;124459;-86
2023/05/04 12:00:42;;;;;;;;;;;;;;;16.24;37.31;102218.81;107455;1261;62032;-85
2023/05/04 12:03:31;;;;;;;;;;;;;;;16.12;37.37;102223.84;107322;1259;124827;-85
2023/05/04 12:05:58;;;;;;;;;;;;;;;16.10;37.13;102229.63;107632;1261;66843;-85
2023/05/04 12:08:33;;;;;;;;;;;;;;;15.96;37.09;102229.80;107492;1265;73073;-86
2023/05/04 12:11:09;;;;;;;;;;;;;;;15.90;37.40;102232.48;107406;1257;124954;-87
2023/05/04 12:13:55;;;;;;;;;;;;;;;15.71;37.21;102242.19;107561;1257;61696;-84
2023/05/04 12:16:22;;;;;;;;;;;;;;;15.47;37.46;102227.01;107092;1259;266381;-84
2023/05/04 12:18:59;;;;;;;;;;;;;;;15.33;37.23;102227.13;107253;1259;66881;-87
2023/05/04 12:21:26;;;;;;;;;;;;;;;15.19;37.43;102224.62;107069;1262;125030;-86
2023/05/04 12:23:56;;;;;;;;;;;;;;;15.16;37.67;102225.23;107156;1260;64014;-86
2023/05/04 12:26:24;;;;;;;;;;;;;;;15.24;37.37;102227.04;107218;1263;62269;-85
2023/05/04 12:28:58;;;;;;;;;;;;;;;15.22;37.16;102224.30;106912;1260;124497;-85
2023/05/04 12:31:25;;;;;;;;;;;;;;;15.07;37.03;102223.71;107117;1264;65481;-85
2023/05/04 12:33:53;;;;;;;;;;;;;;;14.98;37.06;102222.20;107005;1260;124455;-85
2023/05/04 12:36:23;;;;;;;;;;;;;;;14.95;37.07;102221.95;107112;1258;60676;-86
2023/05/04 12:38:51;;;;;;;;;;;;;;;14.87;36.63;102218.49;107606;1258;61955;-84
2023/05/04 12:41:19;;;;;;;;;;;;;;;14.86;36.80;102225.55;107230;1261;124585;-84
2023/05/04 12:43:48;;;;;;;;;;;;;;;14.82;36.42;102225.42;107263;1264;66763;-85
2023/05/04 12:46:20;;;;;;;;;;;;;;;14.76;36.52;102230.20;107219;1259;124551;-85
2023/05/04 12:48:48;;;;;;;;;;;;;;;14.61;36.39;102221.20;107258;1260;62018;-85
2023/05/04 12:51:15;;;;;;;;;;;;;;;14.54;36.82;102228.59;107172;1258;125026;-85